createdAt,value
2022-09-14T00:01:28.713Z,15.60
2022-09-14T00:06:27.106Z,15.60
2022-09-14T00:11:27.046Z,15.50
2022-09-14T00:16:28.139Z,15.50
2022-09-14T00:21:25.714Z,15.50
2022-09-14T00:26:23.769Z,15.40
2022-09-14T00:31:22.342Z,15.40
2022-09-14T00:36:25.490Z,15.50
2022-09-14T00:41:25.135Z,15.60
2022-09-14T00:46:23.557Z,15.60
2022-09-14T00:51:22.401Z,15.60
2022-09-14T00:56:20.111Z,15.60
2022-09-14T01:01:18.205Z,15.50
2022-09-14T01:06:36.996Z,15.50
2022-09-14T01:11:51.755Z,15.40
2022-09-14T01:17:22.915Z,15.50
2022-09-14T01:22:27.306Z,15.60
2022-09-14T01:27:31.281Z,15.60
2022-09-14T01:32:36.555Z,15.50
2022-09-14T01:37:56.469Z,15.60
2022-09-14T01:43:00.444Z,15.50
2022-09-14T01:48:09.825Z,15.50
2022-09-14T01:53:07.132Z,15.50
2022-09-14T01:58:44.095Z,15.60
2022-09-14T02:03:52.470Z,15.50
2022-09-14T02:08:51.377Z,15.50
2022-09-14T02:13:48.665Z,15.50
2022-09-14T02:18:46.342Z,15.50
2022-09-14T02:23:44.604Z,15.60
2022-09-14T02:28:42.163Z,15.60
2022-09-14T02:33:53.758Z,15.50
2022-09-14T02:39:03.059Z,15.60
2022-09-14T02:44:10.433Z,15.60
2022-09-14T02:49:39.199Z,15.60
2022-09-14T02:54:59.296Z,15.40
2022-09-14T02:59:56.545Z,15.50
2022-09-14T03:04:53.781Z,15.50
2022-09-14T03:09:51.108Z,15.40
2022-09-14T03:14:48.444Z,15.50
2022-09-14T03:19:45.637Z,15.50
2022-09-14T03:24:42.957Z,15.50
2022-09-14T03:29:40.153Z,15.50
2022-09-14T03:34:37.428Z,15.40
2022-09-14T03:39:35.387Z,15.40
2022-09-14T03:44:32.873Z,15.50
2022-09-14T03:49:32.873Z,15.50
2022-09-14T03:54:32.373Z,15.40
2022-09-14T03:59:30.493Z,15.40
2022-09-14T04:04:28.364Z,15.50
2022-09-14T04:09:25.724Z,15.50
2022-09-14T04:14:24.176Z,15.40
2022-09-14T04:19:21.384Z,15.50
2022-09-14T04:24:19.195Z,15.50
2022-09-14T04:29:16.690Z,15.40
2022-09-14T04:34:14.200Z,15.40
2022-09-14T04:39:13.900Z,15.30
2022-09-14T04:44:11.380Z,15.40
2022-09-14T04:49:08.842Z,15.40
2022-09-14T04:54:07.824Z,15.30
2022-09-14T04:59:05.983Z,15.40
2022-09-14T05:04:04.747Z,15.40
2022-09-14T05:09:03.793Z,15.30
2022-09-14T05:14:02.127Z,15.40
2022-09-14T05:19:02.278Z,15.40
2022-09-14T05:24:00.774Z,15.50
2022-09-14T05:29:00.317Z,15.50
2022-09-14T05:33:58.245Z,15.60
2022-09-14T05:38:57.844Z,15.60
2022-09-14T05:43:55.036Z,15.70
2022-09-14T05:48:52.378Z,15.80
2022-09-14T05:53:55.112Z,16.10
2022-09-14T05:58:52.608Z,16.30
2022-09-14T06:03:50.747Z,16.50
2022-09-14T06:08:52.656Z,16.80
2022-09-14T06:13:50.274Z,17.00
2022-09-14T06:18:48.571Z,17.10
2022-09-14T06:23:47.274Z,17.40
2022-09-14T06:28:44.691Z,17.40
2022-09-14T06:33:46.271Z,17.70
2022-09-14T06:38:44.560Z,17.80
2022-09-14T06:43:43.097Z,18.10
2022-09-14T06:48:48.121Z,18.40
2022-09-14T06:53:46.903Z,18.50
2022-09-14T06:58:44.588Z,18.80
2022-09-14T07:03:47.189Z,18.90
2022-09-14T07:08:45.303Z,18.90
2022-09-14T07:13:42.545Z,19.10
2022-09-14T07:18:40.505Z,19.90
2022-09-14T07:23:39.652Z,20.60
2022-09-14T07:28:37.831Z,22.90
2022-09-14T07:33:35.101Z,25.30
2022-09-14T07:38:51.163Z,27.00
2022-09-14T07:43:50.986Z,26.30
2022-09-14T07:48:49.215Z,24.30
2022-09-14T07:53:46.649Z,22.90
2022-09-14T07:58:45.688Z,22.80
2022-09-14T08:03:44.329Z,23.10
2022-09-14T08:08:45.234Z,23.90
2022-09-14T08:13:45.665Z,24.30
2022-09-14T08:18:43.075Z,26.00
2022-09-14T08:23:41.522Z,27.40
2022-09-14T08:28:39.389Z,26.50
2022-09-14T08:33:43.339Z,25.40
2022-09-14T08:38:40.908Z,26.90
2022-09-14T08:43:39.593Z,29.00
2022-09-14T08:48:39.845Z,30.10
2022-09-14T08:53:42.027Z,31.20
2022-09-14T08:59:08.187Z,30.90
2022-09-14T09:04:14.936Z,29.40
2022-09-14T09:09:32.337Z,28.70
2022-09-14T09:14:57.628Z,28.20
2022-09-14T09:20:06.863Z,28.40
2022-09-14T09:25:06.588Z,28.00
2022-09-14T09:30:04.138Z,28.30
2022-09-14T09:35:01.566Z,28.00
2022-09-14T09:40:00.639Z,28.10
2022-09-14T09:45:04.303Z,29.30
2022-09-14T09:50:15.388Z,29.60
2022-09-14T09:55:22.838Z,29.10
2022-09-14T10:00:26.412Z,29.10
2022-09-14T10:05:29.277Z,28.70
2022-09-14T10:10:43.787Z,29.10
2022-09-14T10:15:41.571Z,29.00
2022-09-14T10:20:43.313Z,29.60
2022-09-14T10:25:40.729Z,30.20
2022-09-14T10:30:49.557Z,29.50
2022-09-14T10:36:10.359Z,28.90
2022-09-14T10:41:11.570Z,28.50
2022-09-14T10:46:16.242Z,27.70
2022-09-14T10:51:24.954Z,28.00
2022-09-14T10:56:46.326Z,27.70
2022-09-14T11:01:52.900Z,27.60
2022-09-14T11:07:12.545Z,27.30
2022-09-14T11:12:35.179Z,27.10
2022-09-14T11:17:51.035Z,27.00
2022-09-14T11:23:07.821Z,27.00
2022-09-14T11:28:11.309Z,26.70
2022-09-14T11:33:35.843Z,26.50
2022-09-14T11:38:41.884Z,26.60
2022-09-14T11:44:00.291Z,26.50
2022-09-14T11:49:15.512Z,26.50
2022-09-14T11:54:16.996Z,26.60
2022-09-14T11:59:37.255Z,26.50
2022-09-14T12:04:34.668Z,26.70
2022-09-14T12:09:38.911Z,26.70
2022-09-14T12:14:41.363Z,26.70
2022-09-14T12:19:40.236Z,26.80
2022-09-14T12:24:39.942Z,26.70
2022-09-14T12:29:37.390Z,26.80
2022-09-14T12:34:34.934Z,26.70
2022-09-14T12:39:34.409Z,26.80
2022-09-14T12:44:44.190Z,26.90
2022-09-14T12:49:41.854Z,26.90
2022-09-14T12:54:51.676Z,26.70
2022-09-14T13:00:06.278Z,26.80
2022-09-14T13:05:08.232Z,27.10
2022-09-14T13:10:07.722Z,27.00
2022-09-14T13:15:30.322Z,27.00
2022-09-14T13:20:28.503Z,26.50
2022-09-14T13:25:35.141Z,26.40
2022-09-14T13:30:34.557Z,26.30
2022-09-14T13:35:36.359Z,26.40
2022-09-14T13:40:34.402Z,26.30
2022-09-14T13:45:34.031Z,26.10
2022-09-14T13:50:31.700Z,26.10
2022-09-14T13:55:43.550Z,25.80
2022-09-14T14:00:52.776Z,25.50
2022-09-14T14:05:50.300Z,25.60
2022-09-14T14:10:50.183Z,25.90
2022-09-14T14:15:47.744Z,26.00
2022-09-14T14:20:45.172Z,25.90
2022-09-14T14:25:52.295Z,25.70
2022-09-14T14:30:49.970Z,25.50
2022-09-14T14:35:49.220Z,25.50
2022-09-14T14:40:47.110Z,25.40
2022-09-14T14:45:44.655Z,25.30
2022-09-14T14:50:42.121Z,25.20
2022-09-14T14:55:39.637Z,25.20
2022-09-14T15:00:38.665Z,25.30
2022-09-14T15:05:40.957Z,25.30
2022-09-14T15:10:39.196Z,25.10
2022-09-14T15:15:36.735Z,25.00
2022-09-14T15:20:34.462Z,25.10
2022-09-14T15:25:31.842Z,25.10
2022-09-14T15:30:29.238Z,25.00
2022-09-14T15:35:26.595Z,24.80
2022-09-14T15:40:23.912Z,24.60
2022-09-14T15:45:21.636Z,24.60
2022-09-14T15:50:19.274Z,24.70
2022-09-14T15:55:16.579Z,25.00
2022-09-14T16:00:15.582Z,25.10
2022-09-14T16:05:13.168Z,24.90
2022-09-14T16:10:10.730Z,24.60
2022-09-14T16:15:09.786Z,24.40
2022-09-14T16:20:10.227Z,24.30
2022-09-14T16:25:07.670Z,24.20
2022-09-14T16:30:05.409Z,23.90
2022-09-14T16:35:07.272Z,23.70
2022-09-14T16:40:05.950Z,23.50
2022-09-14T16:45:03.347Z,23.40
2022-09-14T16:50:00.776Z,23.30
2022-09-14T16:54:58.222Z,23.20
2022-09-14T16:59:55.696Z,23.20
2022-09-14T17:04:54.009Z,23.10
2022-09-14T17:09:51.452Z,23.00
2022-09-14T17:14:48.831Z,22.80
2022-09-14T17:19:46.118Z,22.60
2022-09-14T17:24:43.403Z,22.60
2022-09-14T17:29:41.049Z,22.50
2022-09-14T17:34:38.784Z,22.40
2022-09-14T17:39:35.994Z,22.30
2022-09-14T17:44:33.283Z,22.40
2022-09-14T17:49:30.713Z,22.40
2022-09-14T17:54:28.328Z,22.20
2022-09-14T17:59:25.663Z,22.30
2022-09-14T18:04:50.440Z,22.40
2022-09-14T18:09:47.895Z,22.20
2022-09-14T18:14:45.098Z,22.40
2022-09-14T18:19:47.324Z,22.40
2022-09-14T18:24:44.741Z,22.50
2022-09-14T18:29:42.685Z,22.30
2022-09-14T18:34:52.133Z,22.30
2022-09-14T18:39:49.701Z,22.20
2022-09-14T18:44:47.339Z,22.20
2022-09-14T18:49:45.373Z,22.20
2022-09-14T18:54:42.787Z,22.20
2022-09-14T18:59:40.442Z,22.20
2022-09-14T19:04:38.846Z,22.00
2022-09-14T19:09:36.148Z,21.90
2022-09-14T19:14:33.852Z,22.10
2022-09-14T19:19:31.202Z,22.20
2022-09-14T19:24:30.969Z,22.20
2022-09-14T19:29:28.962Z,22.10
2022-09-14T19:34:27.908Z,22.10
2022-09-14T19:39:26.337Z,22.20
2022-09-14T19:44:23.705Z,22.20
2022-09-14T19:49:22.699Z,22.20
2022-09-14T19:54:20.349Z,22.10
2022-09-14T19:59:17.633Z,22.10
2022-09-14T20:04:15.919Z,22.10
2022-09-14T20:09:16.811Z,22.20
2022-09-14T20:14:17.805Z,22.10
2022-09-14T20:19:20.600Z,22.20
2022-09-14T20:24:26.507Z,22.10
2022-09-14T20:29:25.012Z,22.00
2022-09-14T20:34:22.746Z,21.80
2022-09-14T20:39:22.312Z,21.50
2022-09-14T20:44:22.427Z,21.20
2022-09-14T20:49:22.268Z,21.00
2022-09-14T20:54:20.188Z,20.80
2022-09-14T20:59:18.961Z,20.80
2022-09-14T21:04:18.778Z,20.80
2022-09-14T21:09:16.926Z,20.70
2022-09-14T21:14:16.627Z,20.60
2022-09-14T21:19:20.460Z,20.60
2022-09-14T21:24:20.032Z,20.60
2022-09-14T21:29:21.249Z,20.50
2022-09-14T21:34:18.627Z,20.50
2022-09-14T21:39:19.432Z,20.50
2022-09-14T21:44:17.093Z,20.40
2022-09-14T21:49:22.057Z,20.30
2022-09-14T21:54:20.583Z,20.40
2022-09-14T21:59:20.866Z,20.50
2022-09-14T22:04:21.197Z,20.40
2022-09-14T22:09:20.881Z,20.30
2022-09-14T22:14:21.078Z,20.30
2022-09-14T22:19:24.286Z,20.10
2022-09-14T22:24:24.601Z,19.90
2022-09-14T22:29:21.919Z,19.80
2022-09-14T22:34:19.421Z,19.70
2022-09-14T22:39:16.746Z,19.60
2022-09-14T22:44:14.222Z,19.60
2022-09-14T22:49:11.668Z,19.60
2022-09-14T22:54:09.267Z,19.60
2022-09-14T22:59:09.062Z,19.40
2022-09-14T23:04:07.502Z,19.30
2022-09-14T23:09:06.165Z,19.30
2022-09-14T23:14:03.595Z,19.10
2022-09-14T23:19:03.057Z,19.10
2022-09-14T23:24:05.133Z,19.10
2022-09-14T23:29:05.806Z,19.10
2022-09-14T23:34:05.508Z,19.00
2022-09-14T23:39:02.701Z,18.90
2022-09-14T23:44:00.986Z,18.90
2022-09-14T23:48:58.285Z,18.80
2022-09-14T23:53:56.176Z,18.70
2022-09-14T23:58:53.383Z,18.70
